createdAt,value
2019-05-19T00:03:36.171Z,100.00
2019-05-19T00:08:37.942Z,99.76
2019-05-19T00:13:39.428Z,100.00
2019-05-19T00:18:41.111Z,100.00
2019-05-19T00:23:42.620Z,100.00
2019-05-19T00:28:44.226Z,100.00
2019-05-19T00:33:45.882Z,99.89
2019-05-19T00:38:47.469Z,100.00
2019-05-19T00:43:49.166Z,100.00
2019-05-19T00:48:52.165Z,100.00
2019-05-19T00:53:53.885Z,99.35
2019-05-19T00:58:57.815Z,99.06
2019-05-19T01:03:59.493Z,99.35
2019-05-19T01:09:01.066Z,99.45
2019-05-19T01:14:03.940Z,100.00
2019-05-19T01:19:05.522Z,100.00
2019-05-19T01:24:06.990Z,100.00
2019-05-19T01:29:08.599Z,100.00
2019-05-19T01:34:10.073Z,100.00
2019-05-19T01:39:11.548Z,99.49
2019-05-19T01:44:13.167Z,98.93
2019-05-19T01:49:14.650Z,98.75
2019-05-19T01:54:16.800Z,99.26
2019-05-19T01:59:18.463Z,98.82
2019-05-19T02:04:19.931Z,98.82
2019-05-19T02:09:21.408Z,99.04
2019-05-19T02:14:23.098Z,98.75
2019-05-19T02:19:24.597Z,98.92
2019-05-19T02:24:26.162Z,98.92
2019-05-19T02:29:27.679Z,99.30
2019-05-19T02:34:29.162Z,99.31
2019-05-19T02:39:30.636Z,99.50
2019-05-19T02:44:35.925Z,99.69
2019-05-19T02:49:39.397Z,99.61
2019-05-19T02:54:41.273Z,99.68
2019-05-19T02:59:43.998Z,100.00
2019-05-19T03:04:45.477Z,100.00
2019-05-19T03:09:46.954Z,100.00
2019-05-19T03:14:48.444Z,100.00
2019-05-19T03:19:49.913Z,100.00
2019-05-19T03:24:51.374Z,100.00
2019-05-19T03:29:54.813Z,100.00
2019-05-19T03:34:56.294Z,100.00
2019-05-19T03:39:57.882Z,100.00
2019-05-19T03:44:59.394Z,100.00
2019-05-19T03:50:00.977Z,100.00
2019-05-19T03:55:05.467Z,100.00
2019-05-19T04:00:08.690Z,100.00
2019-05-19T04:05:11.065Z,100.00
2019-05-19T04:10:13.856Z,100.00
2019-05-19T04:15:16.330Z,100.00
2019-05-19T04:20:17.914Z,100.00
2019-05-19T04:25:19.387Z,100.00
2019-05-19T04:30:21.123Z,100.00
2019-05-19T04:35:22.706Z,100.00
2019-05-19T04:40:24.192Z,100.00
2019-05-19T04:45:25.687Z,100.00
2019-05-19T04:50:27.165Z,99.55
2019-05-19T04:55:28.844Z,100.00
2019-05-19T05:00:30.362Z,100.00
2019-05-19T05:05:31.834Z,99.77
2019-05-19T05:10:33.448Z,98.32
2019-05-19T05:15:34.923Z,98.57
2019-05-19T05:20:36.402Z,98.03
2019-05-19T05:25:37.878Z,96.69
2019-05-19T05:30:39.395Z,96.38
2019-05-19T05:35:40.867Z,98.12
2019-05-19T05:40:42.349Z,95.41
2019-05-19T05:45:43.879Z,94.70
2019-05-19T05:50:45.386Z,96.62
2019-05-19T05:55:46.979Z,95.57
2019-05-19T06:00:48.603Z,93.41
2019-05-19T06:05:50.086Z,96.96
2019-05-19T06:10:52.783Z,92.13
2019-05-19T06:15:54.321Z,88.86
2019-05-19T06:20:55.811Z,89.25
2019-05-19T06:25:57.281Z,87.99
2019-05-19T06:30:58.899Z,87.43
2019-05-19T06:36:00.387Z,86.12
2019-05-19T06:41:01.864Z,85.42
2019-05-19T06:46:03.588Z,86.71
2019-05-19T06:51:05.060Z,85.18
2019-05-19T06:56:06.634Z,79.32
2019-05-19T07:01:08.144Z,80.82
2019-05-19T07:06:09.730Z,82.26
2019-05-19T07:11:11.218Z,82.33
2019-05-19T07:16:12.707Z,81.25
2019-05-19T07:21:14.193Z,82.33
2019-05-19T07:26:15.672Z,78.59
2019-05-19T07:31:17.202Z,81.27
2019-05-19T07:36:18.685Z,78.23
2019-05-19T07:41:20.261Z,75.82
2019-05-19T07:46:22.972Z,75.02
2019-05-19T07:51:24.577Z,75.85
2019-05-19T07:56:26.051Z,77.48
2019-05-19T08:01:28.286Z,73.12
2019-05-19T08:06:29.763Z,74.84
2019-05-19T08:11:31.240Z,75.24
2019-05-19T08:16:32.712Z,69.67
2019-05-19T08:21:34.200Z,73.10
2019-05-19T08:26:35.668Z,71.69
2019-05-19T08:31:38.378Z,78.56
2019-05-19T08:36:39.885Z,76.08
2019-05-19T08:41:41.378Z,73.41
2019-05-19T08:46:43.327Z,75.90
2019-05-19T08:51:44.909Z,70.04
2019-05-19T08:56:46.371Z,71.58
2019-05-19T09:01:47.891Z,70.49
2019-05-19T09:06:49.372Z,67.84
2019-05-19T09:11:50.839Z,71.00
2019-05-19T09:16:52.319Z,72.54
2019-05-19T09:21:53.904Z,67.82
2019-05-19T09:26:55.481Z,71.47
2019-05-19T09:31:57.002Z,68.74
2019-05-19T09:36:58.683Z,65.23
2019-05-19T09:42:00.159Z,66.52
2019-05-19T09:47:01.657Z,67.74
2019-05-19T09:52:04.839Z,64.55
2019-05-19T09:57:06.445Z,67.25
2019-05-19T10:02:08.220Z,66.91
2019-05-19T10:07:09.994Z,65.67
2019-05-19T10:12:11.659Z,66.71
2019-05-19T10:17:13.335Z,62.07
2019-05-19T10:22:14.923Z,68.32
2019-05-19T10:27:16.834Z,67.07
2019-05-19T10:32:18.682Z,64.60
2019-05-19T10:37:21.387Z,68.48
2019-05-19T10:42:22.864Z,60.36
2019-05-19T10:47:24.378Z,62.62
2019-05-19T10:52:25.883Z,63.46
2019-05-19T10:57:27.342Z,64.08
2019-05-19T11:02:28.977Z,66.44
2019-05-19T11:07:30.454Z,60.60
2019-05-19T11:12:32.037Z,62.01
2019-05-19T11:17:33.615Z,64.94
2019-05-19T11:22:35.098Z,65.72
2019-05-19T11:27:36.587Z,65.03
2019-05-19T11:32:38.109Z,63.75
2019-05-19T11:37:39.592Z,62.60
2019-05-19T11:42:41.117Z,58.93
2019-05-19T11:47:42.613Z,60.64
2019-05-19T11:52:44.382Z,59.61
2019-05-19T11:57:46.100Z,60.10
2019-05-19T12:02:47.830Z,59.47
2019-05-19T12:07:49.409Z,58.99
2019-05-19T12:12:50.993Z,57.98
2019-05-19T12:17:52.671Z,60.75
2019-05-19T12:22:54.952Z,60.22
2019-05-19T12:27:56.581Z,60.21
2019-05-19T12:32:59.506Z,55.85
2019-05-19T12:38:02.245Z,57.01
2019-05-19T12:43:03.970Z,60.66
2019-05-19T12:48:05.457Z,61.41
2019-05-19T12:53:07.082Z,65.13
2019-05-19T12:58:08.766Z,66.70
2019-05-19T13:03:10.412Z,70.00
2019-05-19T13:08:12.012Z,71.41
2019-05-19T13:13:13.488Z,73.76
2019-05-19T13:18:14.965Z,74.02
2019-05-19T13:23:16.452Z,72.70
2019-05-19T13:28:18.019Z,73.23
2019-05-19T13:33:19.667Z,71.53
2019-05-19T13:38:22.247Z,73.20
2019-05-19T13:43:26.364Z,69.94
2019-05-19T13:48:27.702Z,69.26
2019-05-19T13:53:29.185Z,70.49
2019-05-19T13:58:30.980Z,69.04
2019-05-19T14:03:32.595Z,60.22
2019-05-19T14:08:34.121Z,62.45
2019-05-19T14:13:35.598Z,66.73
2019-05-19T14:18:37.073Z,63.46
2019-05-19T14:23:38.549Z,61.75
2019-05-19T14:28:41.122Z,67.26
2019-05-19T14:33:42.605Z,68.64
2019-05-19T14:38:59.805Z,63.98
2019-05-19T14:44:03.503Z,62.58
2019-05-19T14:49:05.026Z,59.21
2019-05-19T14:54:06.611Z,57.72
2019-05-19T14:59:08.091Z,58.33
2019-05-19T15:04:09.571Z,63.85
2019-05-19T15:09:11.198Z,63.79
2019-05-19T15:14:12.781Z,60.21
2019-05-19T15:19:14.360Z,61.76
2019-05-19T15:24:15.837Z,59.79
2019-05-19T15:29:17.332Z,61.54
2019-05-19T15:34:18.881Z,63.55
2019-05-19T15:39:20.755Z,63.42
2019-05-19T15:44:22.274Z,64.80
2019-05-19T15:49:23.755Z,65.89
2019-05-19T15:54:25.336Z,67.34
2019-05-19T15:59:26.922Z,64.15
2019-05-19T16:04:28.427Z,67.08
2019-05-19T16:09:30.039Z,65.31
2019-05-19T16:14:31.512Z,67.50
2019-05-19T16:19:32.993Z,68.25
2019-05-19T16:24:34.474Z,68.39
2019-05-19T16:29:36.049Z,63.90
2019-05-19T16:34:37.647Z,65.84
2019-05-19T16:39:39.577Z,67.07
2019-05-19T16:44:41.103Z,67.23
2019-05-19T16:49:42.802Z,68.14
2019-05-19T16:54:49.202Z,68.75
2019-05-19T16:59:50.683Z,67.68
2019-05-19T17:04:52.154Z,67.48
2019-05-19T17:09:53.674Z,68.68
2019-05-19T17:14:55.159Z,70.69
2019-05-19T17:19:56.640Z,72.39
2019-05-19T17:25:00.339Z,73.45
2019-05-19T17:30:06.886Z,75.09
2019-05-19T17:35:09.366Z,75.46
2019-05-19T17:40:12.185Z,76.50
2019-05-19T17:45:14.667Z,77.47
2019-05-19T17:50:32.459Z,78.69
2019-05-19T17:55:35.256Z,80.09
2019-05-19T18:00:40.128Z,80.65
2019-05-19T18:05:41.710Z,81.46
2019-05-19T18:10:43.333Z,81.62
2019-05-19T18:15:44.948Z,82.26
2019-05-19T18:20:47.158Z,82.18
2019-05-19T18:25:48.842Z,82.08
2019-05-19T18:30:50.325Z,82.95
2019-05-19T18:35:52.919Z,83.51
2019-05-19T18:40:54.488Z,84.22
2019-05-19T18:45:56.061Z,84.16
2019-05-19T18:50:57.582Z,84.42
2019-05-19T18:55:59.264Z,84.21
2019-05-19T19:01:00.737Z,84.31
2019-05-19T19:06:02.425Z,84.84
2019-05-19T19:11:04.110Z,85.57
2019-05-19T19:16:05.635Z,86.08
2019-05-19T19:21:07.289Z,87.03
2019-05-19T19:26:08.764Z,87.80
2019-05-19T19:31:10.249Z,88.32
2019-05-19T19:36:11.725Z,88.66
2019-05-19T19:41:13.301Z,89.38
2019-05-19T19:46:14.930Z,89.62
2019-05-19T19:51:17.514Z,90.04
2019-05-19T19:56:18.989Z,91.14
2019-05-19T20:01:20.555Z,91.61
2019-05-19T20:06:22.036Z,92.43
2019-05-19T20:11:23.826Z,92.15
2019-05-19T20:16:25.340Z,92.33
2019-05-19T20:21:26.959Z,92.12
2019-05-19T20:26:28.441Z,92.46
2019-05-19T20:31:31.509Z,92.95
2019-05-19T20:36:33.253Z,93.17
2019-05-19T20:41:34.891Z,94.37
2019-05-19T20:46:36.500Z,95.31
2019-05-19T20:51:37.977Z,95.67
2019-05-19T20:56:39.458Z,96.10
2019-05-19T21:01:40.935Z,96.27
2019-05-19T21:06:42.411Z,96.11
2019-05-19T21:11:44.163Z,96.01
2019-05-19T21:16:45.647Z,96.13
2019-05-19T21:21:47.531Z,96.45
2019-05-19T21:26:49.115Z,98.26
2019-05-19T21:31:50.586Z,98.70
2019-05-19T21:36:52.059Z,98.55
2019-05-19T21:41:53.593Z,98.26
2019-05-19T21:46:55.112Z,98.38
2019-05-19T21:51:56.590Z,98.78
2019-05-19T21:56:58.177Z,99.07
2019-05-19T22:02:00.167Z,98.35
2019-05-19T22:07:09.559Z,98.40
2019-05-19T22:12:11.189Z,98.98
2019-05-19T22:17:12.664Z,99.66
2019-05-19T22:22:14.238Z,100.00
2019-05-19T22:27:15.721Z,100.00
2019-05-19T22:32:17.195Z,100.00
2019-05-19T22:37:18.663Z,99.98
2019-05-19T22:42:20.230Z,99.13
2019-05-19T22:47:21.730Z,98.89
2019-05-19T22:52:23.207Z,99.49
2019-05-19T22:57:24.688Z,99.62
2019-05-19T23:02:26.175Z,99.97
2019-05-19T23:07:27.665Z,100.00
2019-05-19T23:12:29.180Z,100.00
2019-05-19T23:17:30.763Z,100.00
2019-05-19T23:22:32.260Z,100.00
2019-05-19T23:27:33.923Z,99.68
2019-05-19T23:32:35.410Z,99.68
2019-05-19T23:37:36.888Z,100.00
2019-05-19T23:42:38.535Z,100.00
2019-05-19T23:47:40.054Z,100.00
2019-05-19T23:52:41.524Z,100.00
2019-05-19T23:57:43.106Z,100.00
